Time;durP1;ratioP1;P1;durP2;ratioP2;P2;SDS_P1;SDS_P2;PMS_P1;PMS_P2;Temp;Humidity;BMP_temperature;BMP_pressure;BME280_temperature;BME280_humidity;BME280_pressure;Samples;Min_cycle;Max_cycle;Signal;HPM_P1;HPM_P2
2022/03/16 00:00:10;;;;;;;4.93;3.90;;;;;;;;;;5076760;28;20094;-83
2022/03/16 00:02:36;;;;;;;6.28;4.20;;;;;;;;;;5076738;28;20047;-84
2022/03/16 00:05:01;;;;;;;8.00;4.22;;;;;;;;;;5095082;28;20471;-83
2022/03/16 00:07:27;;;;;;;6.22;4.43;;;;;;;;;;5077338;28;20051;-84
2022/03/16 00:09:52;;;;;;;5.43;4.13;;;;;;;;;;5094027;28;20032;-83
2022/03/16 00:12:18;;;;;;;7.47;3.97;;;;;;;;;;5059905;28;20035;-83
2022/03/16 00:14:43;;;;;;;8.27;4.40;;;;;;;;;;5094976;28;20056;-83
2022/03/16 00:17:10;;;;;;;7.07;4.63;;;;;;;;;;5094696;28;20047;-83
2022/03/16 00:19:36;;;;;;;6.80;4.00;;;;;;;;;;5076463;28;20028;-83
2022/03/16 00:22:03;;;;;;;4.82;3.75;;;;;;;;;;5060074;28;20038;-83
2022/03/16 00:24:29;;;;;;;5.82;4.15;;;;;;;;;;5076230;28;20375;-83
2022/03/16 00:26:54;;;;;;;6.88;4.35;;;;;;;;;;5094511;28;20030;-83
2022/03/16 00:29:20;;;;;;;7.15;4.18;;;;;;;;;;5076210;28;20035;-82
2022/03/16 00:31:45;;;;;;;8.68;3.95;;;;;;;;;;5059393;28;20028;-83
2022/03/16 00:34:11;;;;;;;6.95;4.15;;;;;;;;;;5076576;28;20031;-83
2022/03/16 00:36:36;;;;;;;5.95;3.90;;;;;;;;;;5094088;28;20456;-83
2022/03/16 00:39:03;;;;;;;4.80;3.67;;;;;;;;;;5059377;28;20074;-82
2022/03/16 00:41:29;;;;;;;6.28;4.10;;;;;;;;;;5059411;28;20474;-83
2022/03/16 00:43:54;;;;;;;5.32;3.88;;;;;;;;;;5094106;28;20066;-83
2022/03/16 00:46:20;;;;;;;6.82;4.15;;;;;;;;;;5076158;28;20104;-83
2022/03/16 00:48:45;;;;;;;4.57;3.60;;;;;;;;;;5076281;28;20032;-83
2022/03/16 00:51:11;;;;;;;5.35;4.00;;;;;;;;;;5094307;28;20110;-83
2022/03/16 00:53:39;;;;;;;4.68;3.78;;;;;;;;;;5076239;28;20024;-83
2022/03/16 00:56:05;;;;;;;5.38;3.90;;;;;;;;;;5075681;28;20058;-83
2022/03/16 00:58:30;;;;;;;5.07;3.75;;;;;;;;;;5075632;28;20368;-84
2022/03/16 01:00:56;;;;;;;6.20;4.35;;;;;;;;;;5093831;28;20028;-84
2022/03/16 01:03:21;;;;;;;5.75;3.88;;;;;;;;;;5076131;28;20039;-84
2022/03/16 01:05:47;;;;;;;5.28;3.60;;;;;;;;;;5076030;28;20042;-84
2022/03/16 01:08:13;;;;;;;7.07;4.22;;;;;;;;;;5075430;28;20050;-84
2022/03/16 01:10:39;;;;;;;7.43;4.10;;;;;;;;;;5075808;28;20043;-83
2022/03/16 01:13:05;;;;;;;5.72;3.78;;;;;;;;;;5058714;28;20032;-83
2022/03/16 01:15:30;;;;;;;4.65;3.75;;;;;;;;;;5093753;28;20036;-83
2022/03/16 01:17:56;;;;;;;4.97;4.05;;;;;;;;;;5075011;28;20537;-83
2022/03/16 01:20:21;;;;;;;4.28;3.72;;;;;;;;;;5093680;28;20032;-83
2022/03/16 01:22:47;;;;;;;6.40;4.03;;;;;;;;;;5075259;28;20084;-83
2022/03/16 01:25:12;;;;;;;4.72;3.95;;;;;;;;;;5058459;28;20024;-83
2022/03/16 01:27:38;;;;;;;10.52;4.35;;;;;;;;;;5075167;28;20150;-83
2022/03/16 01:30:04;;;;;;;5.03;4.05;;;;;;;;;;5058310;28;20032;-83
2022/03/16 01:32:29;;;;;;;6.07;4.15;;;;;;;;;;5074985;28;20039;-82
2022/03/16 01:34:55;;;;;;;5.10;4.15;;;;;;;;;;5075310;28;20020;-83
2022/03/16 01:37:20;;;;;;;6.05;4.07;;;;;;;;;;5075029;28;20152;-83
2022/03/16 01:39:46;;;;;;;4.82;4.07;;;;;;;;;;5075614;28;20064;-82
2022/03/16 01:42:11;;;;;;;6.07;3.50;;;;;;;;;;5093456;28;20035;-82
2022/03/16 01:44:50;;;;;;;5.68;4.28;;;;;;;;;;5075063;28;20051;-82
2022/03/16 01:47:21;;;;;;;5.25;4.10;;;;;;;;;;5075199;28;20405;-82
2022/03/16 01:49:47;;;;;;;6.80;4.35;;;;;;;;;;5075293;28;20463;-82
2022/03/16 01:52:19;;;;;;;6.95;4.07;;;;;;;;;;5074579;28;20429;-82
2022/03/16 01:54:44;;;;;;;4.80;3.47;;;;;;;;;;5075286;28;20038;-82
2022/03/16 01:57:11;;;;;;;6.25;3.78;;;;;;;;;;5074657;28;20046;-83
2022/03/16 01:59:37;;;;;;;6.25;4.30;;;;;;;;;;5074001;28;20069;-82
2022/03/16 02:02:06;;;;;;;6.03;4.22;;;;;;;;;;5075248;28;20028;-83
2022/03/16 02:04:32;;;;;;;4.22;3.83;;;;;;;;;;5074963;28;20060;-82
2022/03/16 02:07:01;;;;;;;6.53;4.40;;;;;;;;;;5075086;28;20032;-82
2022/03/16 02:09:26;;;;;;;5.28;4.10;;;;;;;;;;5074609;28;20024;-82
2022/03/16 02:11:52;;;;;;;7.13;4.28;;;;;;;;;;5092637;28;20386;-83
2022/03/16 02:14:18;;;;;;;5.32;4.13;;;;;;;;;;5074643;28;20446;-83
2022/03/16 02:16:47;;;;;;;7.13;4.90;;;;;;;;;;5074425;28;20032;-83
2022/03/16 02:19:13;;;;;;;4.78;3.78;;;;;;;;;;5074699;28;20114;-83
2022/03/16 02:21:40;;;;;;;6.82;4.32;;;;;;;;;;5074290;28;20056;-83
2022/03/16 02:24:06;;;;;;;6.70;3.95;;;;;;;;;;5092448;28;20031;-83
2022/03/16 02:26:31;;;;;;;4.82;3.78;;;;;;;;;;5092354;28;20028;-82
2022/03/16 02:28:57;;;;;;;7.57;4.60;;;;;;;;;;5074705;28;20040;-83
2022/03/16 02:31:24;;;;;;;6.45;4.53;;;;;;;;;;5074226;28;20509;-83
2022/03/16 02:33:49;;;;;;;5.70;4.25;;;;;;;;;;5076062;28;20375;-83
2022/03/16 02:36:14;;;;;;;5.55;4.10;;;;;;;;;;5078021;28;20028;-83
2022/03/16 02:38:40;;;;;;;5.13;4.15;;;;;;;;;;5078029;28;20044;-82
2022/03/16 02:41:05;;;;;;;7.00;4.45;;;;;;;;;;5096537;28;20056;-82
2022/03/16 02:43:31;;;;;;;5.47;4.07;;;;;;;;;;5095975;28;20081;-83
2022/03/16 02:45:56;;;;;;;5.47;4.35;;;;;;;;;;5095738;28;20032;-83
2022/03/16 02:48:22;;;;;;;6.90;4.68;;;;;;;;;;5077711;28;20411;-84
2022/03/16 02:50:49;;;;;;;6.00;4.65;;;;;;;;;;5095882;28;20169;-83
2022/03/16 02:53:15;;;;;;;5.88;4.70;;;;;;;;;;5078005;28;20487;-83
2022/03/16 02:55:41;;;;;;;6.65;5.00;;;;;;;;;;5061064;28;20036;-83
2022/03/16 02:58:07;;;;;;;7.03;4.75;;;;;;;;;;5061148;28;20497;-83
2022/03/16 03:00:33;;;;;;;6.40;4.90;;;;;;;;;;5061060;28;20537;-82
2022/03/16 03:02:58;;;;;;;7.80;4.95;;;;;;;;;;5077530;28;20067;-82
2022/03/16 03:05:24;;;;;;;7.07;4.82;;;;;;;;;;5096051;28;20107;-83
2022/03/16 03:07:49;;;;;;;6.68;5.00;;;;;;;;;;5095623;28;20044;-83
2022/03/16 03:10:14;;;;;;;8.27;5.38;;;;;;;;;;5095529;28;20395;-84
2022/03/16 03:12:40;;;;;;;5.70;5.00;;;;;;;;;;5095559;28;20039;-83
2022/03/16 03:15:06;;;;;;;7.18;5.22;;;;;;;;;;5095479;28;20032;-84
2022/03/16 03:17:31;;;;;;;8.63;5.68;;;;;;;;;;5060547;28;20038;-82
2022/03/16 03:19:57;;;;;;;8.60;5.28;;;;;;;;;;5095678;28;20065;-82
2022/03/16 03:22:27;;;;;;;12.20;5.50;;;;;;;;;;5095460;28;20024;-83
2022/03/16 03:24:53;;;;;;;5.43;4.65;;;;;;;;;;5095379;28;20031;-83
2022/03/16 03:27:18;;;;;;;6.38;5.13;;;;;;;;;;5077177;28;20024;-83
2022/03/16 03:29:44;;;;;;;6.20;5.38;;;;;;;;;;5077227;28;20040;-83
2022/03/16 03:32:09;;;;;;;5.88;5.05;;;;;;;;;;5076937;28;20160;-83
2022/03/16 03:34:34;;;;;;;8.18;5.28;;;;;;;;;;5077312;28;20028;-83
2022/03/16 03:37:00;;;;;;;7.38;5.28;;;;;;;;;;5043499;28;20093;-82
2022/03/16 03:39:25;;;;;;;8.20;5.50;;;;;;;;;;5060170;28;20031;-82
2022/03/16 03:41:50;;;;;;;6.35;5.15;;;;;;;;;;5077097;28;20048;-81
2022/03/16 03:44:16;;;;;;;25.73;5.80;;;;;;;;;;5077201;28;20085;-82
2022/03/16 03:46:41;;;;;;;7.15;5.50;;;;;;;;;;5060056;28;20514;-82
2022/03/16 03:49:06;;;;;;;8.30;6.15;;;;;;;;;;5094800;28;20119;-81
2022/03/16 03:51:32;;;;;;;10.20;5.72;;;;;;;;;;5076923;28;20078;-81
2022/03/16 03:53:57;;;;;;;8.75;5.47;;;;;;;;;;5059983;28;20042;-82
2022/03/16 03:56:23;;;;;;;8.18;5.60;;;;;;;;;;5076526;28;20032;-82
2022/03/16 03:58:48;;;;;;;6.40;5.20;;;;;;;;;;5059837;28;20431;-82
2022/03/16 04:01:15;;;;;;;7.38;5.65;;;;;;;;;;5076403;28;20109;-82
2022/03/16 04:03:41;;;;;;;7.55;5.32;;;;;;;;;;5076412;28;20024;-82
2022/03/16 04:06:08;;;;;;;9.10;5.68;;;;;;;;;;5076354;28;20036;-82
2022/03/16 04:08:34;;;;;;;6.47;5.68;;;;;;;;;;5094780;28;20066;-83
2022/03/16 04:10:59;;;;;;;6.47;5.45;;;;;;;;;;5094519;28;20408;-83
2022/03/16 04:13:25;;;;;;;9.40;6.00;;;;;;;;;;5076313;28;20057;-83
2022/03/16 04:15:50;;;;;;;8.50;5.50;;;;;;;;;;5094511;28;20024;-83
2022/03/16 04:18:15;;;;;;;8.63;5.40;;;;;;;;;;5094560;28;20387;-83
2022/03/16 04:20:41;;;;;;;7.22;5.72;;;;;;;;;;5059601;28;20024;-83
2022/03/16 04:23:06;;;;;;;9.30;5.82;;;;;;;;;;5094456;28;20039;-83
2022/03/16 04:25:32;;;;;;;8.52;6.25;;;;;;;;;;5076195;28;20101;-83
2022/03/16 04:27:58;;;;;;;7.32;5.70;;;;;;;;;;5094113;28;20032;-83
2022/03/16 04:30:23;;;;;;;7.43;5.68;;;;;;;;;;5075866;28;20120;-83
2022/03/16 04:32:51;;;;;;;8.68;5.95;;;;;;;;;;5076083;28;20118;-83
2022/03/16 04:35:18;;;;;;;7.05;5.55;;;;;;;;;;5093933;28;20031;-83
2022/03/16 04:37:43;;;;;;;7.43;5.80;;;;;;;;;;5076133;28;20470;-83
2022/03/16 04:40:09;;;;;;;8.68;5.70;;;;;;;;;;5075709;28;20135;-83
2022/03/16 04:42:35;;;;;;;7.55;5.38;;;;;;;;;;5075455;28;20423;-83
2022/03/16 04:45:00;;;;;;;8.02;5.88;;;;;;;;;;5075932;28;20035;-82
2022/03/16 04:47:25;;;;;;;9.30;5.90;;;;;;;;;;5093627;28;20044;-82
2022/03/16 04:49:51;;;;;;;9.15;5.80;;;;;;;;;;5093962;28;20036;-82
2022/03/16 04:52:16;;;;;;;9.02;6.30;;;;;;;;;;5094211;28;20031;-82
2022/03/16 04:54:42;;;;;;;7.45;5.53;;;;;;;;;;5094070;28;20115;-82
2022/03/16 04:57:07;;;;;;;8.85;5.95;;;;;;;;;;5074826;28;20042;-83
2022/03/16 04:59:32;;;;;;;9.38;6.00;;;;;;;;;;5075264;28;20040;-84
2022/03/16 05:01:58;;;;;;;7.63;5.80;;;;;;;;;;5093880;28;20020;-79
2022/03/16 05:04:23;;;;;;;10.68;5.60;;;;;;;;;;5093479;28;20028;-84
2022/03/16 05:06:48;;;;;;;6.85;5.68;;;;;;;;;;5093968;28;20059;-85
2022/03/16 05:09:14;;;;;;;8.27;5.38;;;;;;;;;;5058538;28;20046;-84
2022/03/16 05:11:41;;;;;;;15.80;5.55;;;;;;;;;;5093557;28;20028;-83
2022/03/16 05:14:08;;;;;;;7.63;5.55;;;;;;;;;;5093332;28;20573;-84
2022/03/16 05:16:34;;;;;;;6.65;5.40;;;;;;;;;;5093707;28;20060;-84
2022/03/16 05:18:59;;;;;;;9.73;6.30;;;;;;;;;;5075416;28;20487;-84
2022/03/16 05:21:25;;;;;;;9.73;6.28;;;;;;;;;;5093255;28;20024;-84
2022/03/16 05:23:50;;;;;;;10.07;5.95;;;;;;;;;;5075076;28;20042;-82
2022/03/16 05:26:15;;;;;;;8.35;6.18;;;;;;;;;;5093254;28;20514;-80
2022/03/16 05:28:42;;;;;;;7.93;5.80;;;;;;;;;;5082149;28;20040;-82
2022/03/16 05:31:07;;;;;;;7.97;6.10;;;;;;;;;;5081751;28;20205;-79
2022/03/16 05:33:33;;;;;;;9.10;6.15;;;;;;;;;;5073866;28;20483;-80
2022/03/16 05:35:58;;;;;;;10.57;5.70;;;;;;;;;;5071957;28;20028;-84
2022/03/16 05:38:23;;;;;;;38.65;6.28;;;;;;;;;;5070836;28;20454;-81
2022/03/16 05:40:49;;;;;;;10.82;5.80;;;;;;;;;;5072039;28;20028;-78
2022/03/16 05:43:14;;;;;;;11.15;5.95;;;;;;;;;;5071789;28;20035;-81
2022/03/16 05:45:40;;;;;;;8.55;5.22;;;;;;;;;;5070293;28;20020;-83
2022/03/16 05:48:05;;;;;;;7.88;5.70;;;;;;;;;;5072063;28;20039;-81
2022/03/16 05:50:31;;;;;;;11.07;5.32;;;;;;;;;;5091772;28;20036;-81
2022/03/16 05:53:00;;;;;;;9.38;5.90;;;;;;;;;;5091608;28;20024;-80
2022/03/16 05:55:26;;;;;;;12.48;5.85;;;;;;;;;;5073934;28;20105;-80
2022/03/16 05:57:51;;;;;;;8.65;5.53;;;;;;;;;;5056372;28;20027;-80
2022/03/16 06:00:18;;;;;;;13.65;6.18;;;;;;;;;;5091884;28;20413;-82
2022/03/16 06:02:44;;;;;;;8.68;5.00;;;;;;;;;;5066142;28;20036;-83
2022/03/16 06:05:10;;;;;;;10.77;5.50;;;;;;;;;;5054008;28;20048;-83
2022/03/16 06:07:37;;;;;;;10.07;5.45;;;;;;;;;;5090508;28;20063;-81
2022/03/16 06:10:04;;;;;;;8.82;5.30;;;;;;;;;;5062106;28;20039;-80
2022/03/16 06:12:29;;;;;;;9.40;5.50;;;;;;;;;;5078471;28;20389;-80
2022/03/16 06:14:54;;;;;;;9.55;5.20;;;;;;;;;;5097621;28;20031;-80
2022/03/16 06:17:20;;;;;;;11.18;5.35;;;;;;;;;;5079236;28;20385;-81
2022/03/16 06:19:45;;;;;;;12.35;5.00;;;;;;;;;;5097503;28;20044;-82
2022/03/16 06:22:10;;;;;;;9.23;5.32;;;;;;;;;;5098132;28;20490;-83
2022/03/16 06:24:36;;;;;;;6.68;4.80;;;;;;;;;;5097102;28;20439;-83
2022/03/16 06:27:01;;;;;;;8.85;5.38;;;;;;;;;;5099053;28;20036;-82
2022/03/16 06:29:27;;;;;;;12.25;5.97;;;;;;;;;;5096711;28;20394;-82
2022/03/16 06:31:52;;;;;;;11.75;5.18;;;;;;;;;;5079017;28;20032;-82
2022/03/16 06:34:17;;;;;;;9.48;5.45;;;;;;;;;;5097375;28;20028;-83
2022/03/16 06:36:43;;;;;;;6.97;4.85;;;;;;;;;;5097234;28;20020;-81
2022/03/16 06:39:08;;;;;;;7.47;5.03;;;;;;;;;;5096608;28;20044;-81
2022/03/16 06:41:34;;;;;;;7.10;4.90;;;;;;;;;;5078478;28;20069;-82
2022/03/16 06:44:00;;;;;;;8.75;4.82;;;;;;;;;;5078671;28;20028;-82
2022/03/16 06:46:27;;;;;;;9.82;5.50;;;;;;;;;;5079440;28;20032;-81
2022/03/16 06:48:52;;;;;;;6.68;5.22;;;;;;;;;;5067003;28;20043;-82
2022/03/16 06:51:18;;;;;;;7.47;5.40;;;;;;;;;;5049766;28;20028;-82
2022/03/16 06:53:43;;;;;;;9.00;5.63;;;;;;;;;;5081495;28;20050;-84
2022/03/16 06:56:09;;;;;;;11.40;5.63;;;;;;;;;;5082885;28;20024;-82
2022/03/16 06:58:34;;;;;;;12.55;5.63;;;;;;;;;;5084984;28;20476;-82
2022/03/16 07:00:59;;;;;;;9.02;5.72;;;;;;;;;;5079685;28;20036;-82
2022/03/16 07:03:25;;;;;;;9.27;5.50;;;;;;;;;;5078877;28;20107;-82
2022/03/16 07:05:50;;;;;;;13.75;5.78;;;;;;;;;;5061476;28;20398;-82
2022/03/16 07:08:16;;;;;;;8.82;5.55;;;;;;;;;;5080231;28;20020;-82
2022/03/16 07:10:43;;;;;;;7.90;5.55;;;;;;;;;;5062666;28;20032;-84
2022/03/16 07:13:11;;;;;;;10.30;5.55;;;;;;;;;;5062444;28;20178;-81
2022/03/16 07:15:37;;;;;;;11.93;6.07;;;;;;;;;;5080023;28;20028;-82
2022/03/16 07:18:02;;;;;;;7.70;5.63;;;;;;;;;;5097649;28;20062;-82
2022/03/16 07:20:28;;;;;;;8.65;6.10;;;;;;;;;;5078195;28;20035;-83
2022/03/16 07:23:06;;;;;;;7.85;5.95;;;;;;;;;;5097481;28;20028;-83
2022/03/16 07:25:32;;;;;;;10.57;5.85;;;;;;;;;;5080371;28;20092;-83
2022/03/16 07:27:57;;;;;;;9.48;6.05;;;;;;;;;;5079911;28;20066;-83
2022/03/16 07:30:23;;;;;;;9.90;6.22;;;;;;;;;;5095876;28;20054;-81
2022/03/16 07:32:48;;;;;;;8.98;5.65;;;;;;;;;;5096876;28;20020;-81
2022/03/16 07:35:14;;;;;;;7.70;5.50;;;;;;;;;;5077277;28;20042;-83
2022/03/16 07:37:42;;;;;;;7.70;4.82;;;;;;;;;;5095302;28;20058;-83
2022/03/16 07:40:20;;;;;;;7.68;5.00;;;;;;;;;;5078557;28;20496;-82
2022/03/16 07:42:46;;;;;;;9.02;4.93;;;;;;;;;;5061857;28;20092;-82
2022/03/16 07:45:14;;;;;;;6.28;4.78;;;;;;;;;;5077760;28;20127;-82
2022/03/16 07:47:39;;;;;;;7.05;4.47;;;;;;;;;;5078596;28;20044;-82
2022/03/16 07:50:06;;;;;;;7.60;4.95;;;;;;;;;;5077323;28;20061;-82
2022/03/16 07:52:32;;;;;;;8.82;4.88;;;;;;;;;;5060215;28;20398;-82
2022/03/16 07:54:57;;;;;;;11.70;5.38;;;;;;;;;;5077200;28;20023;-83
2022/03/16 07:57:23;;;;;;;5.97;4.72;;;;;;;;;;5095308;28;20035;-83
2022/03/16 07:59:48;;;;;;;7.15;4.45;;;;;;;;;;5077126;28;20451;-84
2022/03/16 08:02:17;;;;;;;7.75;4.72;;;;;;;;;;5076994;28;20100;-83
2022/03/16 08:04:42;;;;;;;6.40;3.92;;;;;;;;;;5095875;28;20059;-85
2022/03/16 08:07:09;;;;;;;5.20;3.67;;;;;;;;;;5044385;28;20098;-85
2022/03/16 08:09:35;;;;;;;5.63;3.70;;;;;;;;;;5076721;28;20028;-86
2022/03/16 08:12:00;;;;;;;5.03;4.22;;;;;;;;;;5077331;28;20036;-81
2022/03/16 08:14:26;;;;;;;5.60;3.88;;;;;;;;;;5060043;28;20032;-80
2022/03/16 08:16:51;;;;;;;6.70;3.70;;;;;;;;;;5060797;28;20039;-81
2022/03/16 08:19:17;;;;;;;4.32;3.35;;;;;;;;;;5077152;28;20040;-82
2022/03/16 08:21:43;;;;;;;4.55;3.70;;;;;;;;;;5077301;28;20024;-82
2022/03/16 08:24:09;;;;;;;3.58;3.03;;;;;;;;;;5094438;28;20439;-82
2022/03/16 08:26:34;;;;;;;5.15;3.50;;;;;;;;;;5077413;28;20035;-81
2022/03/16 08:28:59;;;;;;;4.47;3.65;;;;;;;;;;5059527;28;20028;-82
2022/03/16 08:31:25;;;;;;;4.53;3.20;;;;;;;;;;5075698;28;20039;-81
2022/03/16 08:33:50;;;;;;;3.83;2.80;;;;;;;;;;5079133;28;20415;-81
2022/03/16 08:36:16;;;;;;;4.40;3.10;;;;;;;;;;5075540;28;20025;-83
2022/03/16 08:38:41;;;;;;;4.53;2.95;;;;;;;;;;5041476;28;20041;-82
2022/03/16 08:41:08;;;;;;;5.25;3.22;;;;;;;;;;5056185;28;20090;-80
2022/03/16 08:43:34;;;;;;;4.47;3.63;;;;;;;;;;5057460;28;20059;-81
2022/03/16 08:46:00;;;;;;;5.00;3.28;;;;;;;;;;5042096;28;20028;-80
2022/03/16 08:48:26;;;;;;;4.13;3.22;;;;;;;;;;5056917;28;20547;-81
2022/03/16 08:50:51;;;;;;;3.58;3.08;;;;;;;;;;5057141;28;20108;-81
2022/03/16 08:53:16;;;;;;;3.70;2.92;;;;;;;;;;5056793;28;20032;-82
2022/03/16 08:55:42;;;;;;;4.85;2.83;;;;;;;;;;5056667;28;20024;-83
2022/03/16 08:58:07;;;;;;;5.80;3.13;;;;;;;;;;5040276;28;20129;-85
2022/03/16 09:00:33;;;;;;;4.05;3.08;;;;;;;;;;5056434;28;20041;-84
2022/03/16 09:02:58;;;;;;;6.07;3.03;;;;;;;;;;5056085;28;20131;-82
2022/03/16 09:05:24;;;;;;;4.22;3.05;;;;;;;;;;5073830;28;20033;-83
2022/03/16 09:07:50;;;;;;;4.10;3.10;;;;;;;;;;5055554;28;20025;-82
2022/03/16 09:10:15;;;;;;;5.75;2.80;;;;;;;;;;5073831;28;20124;-82
2022/03/16 09:12:41;;;;;;;7.15;3.10;;;;;;;;;;5055429;28;20095;-81
2022/03/16 09:15:07;;;;;;;3.13;2.72;;;;;;;;;;5055498;28;20459;-82
2022/03/16 09:17:33;;;;;;;3.88;2.85;;;;;;;;;;5054852;28;20033;-83
2022/03/16 09:20:00;;;;;;;6.25;2.90;;;;;;;;;;5071937;28;20400;-82
2022/03/16 09:22:25;;;;;;;2.95;2.38;;;;;;;;;;5038138;28;20035;-82
2022/03/16 09:24:51;;;;;;;6.40;2.53;;;;;;;;;;5072787;28;20479;-82
2022/03/16 09:27:16;;;;;;;3.72;2.80;;;;;;;;;;5073430;28;20123;-82
2022/03/16 09:29:45;;;;;;;5.45;3.20;;;;;;;;;;5074432;28;20421;-82
2022/03/16 09:32:10;;;;;;;3.40;2.40;;;;;;;;;;5056219;28;20093;-81
2022/03/16 09:34:36;;;;;;;5.13;2.65;;;;;;;;;;5055612;28;20464;-80
2022/03/16 09:37:03;;;;;;;5.18;2.60;;;;;;;;;;5055683;28;20031;-81
2022/03/16 09:39:28;;;;;;;4.07;2.03;;;;;;;;;;5022874;28;20033;-81
2022/03/16 09:41:56;;;;;;;3.00;2.38;;;;;;;;;;5072518;28;20043;-81
2022/03/16 09:44:23;;;;;;;6.63;3.08;;;;;;;;;;5054851;28;20103;-80
2022/03/16 09:46:52;;;;;;;5.32;2.78;;;;;;;;;;5038340;28;20029;-81
2022/03/16 09:49:17;;;;;;;4.07;2.90;;;;;;;;;;5054920;28;20036;-81
2022/03/16 09:51:43;;;;;;;3.90;2.80;;;;;;;;;;5054591;28;20035;-81
2022/03/16 09:54:09;;;;;;;6.10;2.90;;;;;;;;;;5054923;28;20044;-82
2022/03/16 09:56:34;;;;;;;3.78;2.90;;;;;;;;;;5073266;28;20194;-80
2022/03/16 09:59:00;;;;;;;5.32;3.28;;;;;;;;;;5058852;28;20036;-81
2022/03/16 10:01:26;;;;;;;4.00;2.42;;;;;;;;;;5055218;28;20031;-85
2022/03/16 10:03:52;;;;;;;5.28;2.50;;;;;;;;;;5071479;28;20064;-84
2022/03/16 10:06:21;;;;;;;12.55;2.97;;;;;;;;;;5055210;28;20103;-84
2022/03/16 10:14:17;;;;;;;3.45;2.25;;;;;;;;;;5073520;28;20128;-83
2022/03/16 10:19:49;;;;;;;3.35;2.60;;;;;;;;;;5058105;28;20047;-82
2022/03/16 10:22:26;;;;;;;4.35;2.53;;;;;;;;;;5039829;28;20475;-81
2022/03/16 10:25:04;;;;;;;6.10;2.35;;;;;;;;;;5074556;28;20033;-81
2022/03/16 10:27:31;;;;;;;6.40;3.22;;;;;;;;;;5055121;28;20078;-80
2022/03/16 10:29:56;;;;;;;6.32;2.53;;;;;;;;;;5055207;28;20020;-80
2022/03/16 10:32:22;;;;;;;3.88;2.58;;;;;;;;;;5055492;28;20074;-81
2022/03/16 10:34:53;;;;;;;5.70;3.10;;;;;;;;;;5073133;28;20557;-80
2022/03/16 10:37:23;;;;;;;3.28;2.53;;;;;;;;;;5054970;28;20108;-83
2022/03/16 10:39:52;;;;;;;5.40;1.98;;;;;;;;;;5073475;28;20032;-84
2022/03/16 10:48:19;;;;;;;6.00;2.75;;;;;;;;;;5058113;28;20122;-84
2022/03/16 10:50:46;;;;;;;8.30;2.70;;;;;;;;;;5073501;28;20126;-86
2022/03/16 10:53:16;;;;;;;4.28;2.88;;;;;;;;;;5056466;28;20029;-85
2022/03/16 10:55:43;;;;;;;5.07;2.55;;;;;;;;;;5077565;28;20032;-84
2022/03/16 10:58:11;;;;;;;5.72;2.47;;;;;;;;;;5062856;28;20021;-85
2022/03/16 11:00:38;;;;;;;3.58;2.40;;;;;;;;;;5078816;28;20055;-85
2022/03/16 11:03:14;;;;;;;3.13;2.72;;;;;;;;;;5058795;28;20086;-85
2022/03/16 11:05:41;;;;;;;3.45;2.55;;;;;;;;;;5076258;28;20078;-85
2022/03/16 11:08:07;;;;;;;2.88;2.60;;;;;;;;;;5058073;28;20023;-85
2022/03/16 11:10:42;;;;;;;3.40;2.63;;;;;;;;;;5058352;28;20028;-85
2022/03/16 11:15:54;;;;;;;3.20;2.53;;;;;;;;;;5060414;28;20067;-86
2022/03/16 11:18:20;;;;;;;3.65;2.85;;;;;;;;;;5040920;28;20037;-86
2022/03/16 11:20:53;;;;;;;3.58;2.58;;;;;;;;;;5057488;28;20104;-86
2022/03/16 11:26:26;;;;;;;3.58;3.00;;;;;;;;;;5060654;28;20058;-86
2022/03/16 11:29:17;;;;;;;4.50;3.05;;;;;;;;;;5075380;28;20471;-85
2022/03/16 11:31:43;;;;;;;3.90;2.63;;;;;;;;;;5041316;28;20028;-85
2022/03/16 11:34:10;;;;;;;4.30;2.63;;;;;;;;;;5058820;28;20371;-85
2022/03/16 11:36:40;;;;;;;3.40;3.00;;;;;;;;;;5058076;28;20016;-85
2022/03/16 11:39:21;;;;;;;3.40;2.33;;;;;;;;;;5059119;28;20498;-85
2022/03/16 11:41:53;;;;;;;4.35;2.05;;;;;;;;;;5058453;28;20036;-84
2022/03/16 11:44:28;;;;;;;11.85;2.35;;;;;;;;;;5058480;28;20033;-85
2022/03/16 11:46:55;;;;;;;6.13;3.58;;;;;;;;;;5075653;28;20040;-84
2022/03/16 11:49:30;;;;;;;5.60;2.40;;;;;;;;;;5057690;28;20082;-85
2022/03/16 11:51:58;;;;;;;5.00;2.78;;;;;;;;;;5057571;28;20040;-82
2022/03/16 11:54:40;;;;;;;3.35;2.20;;;;;;;;;;5057982;28;20088;-84
2022/03/16 11:57:05;;;;;;;8.55;2.45;;;;;;;;;;5057435;28;20081;-84
2022/03/16 11:59:32;;;;;;;5.68;3.40;;;;;;;;;;5023781;28;20028;-84
2022/03/16 12:02:12;;;;;;;4.38;3.25;;;;;;;;;;5059452;28;20054;-86
2022/03/16 12:04:42;;;;;;;5.63;3.47;;;;;;;;;;5058811;28;20036;-86
2022/03/16 12:07:16;;;;;;;4.55;2.45;;;;;;;;;;5077264;28;20032;-86
2022/03/16 12:09:52;;;;;;;8.48;2.90;;;;;;;;;;5078889;28;20074;-83
2022/03/16 12:15:11;;;;;;;5.55;2.90;;;;;;;;;;5067128;28;20035;-85
2022/03/16 12:17:56;;;;;;;5.40;3.72;;;;;;;;;;5087008;28;20024;-86
2022/03/16 12:20:21;;;;;;;6.18;2.83;;;;;;;;;;5084560;28;20034;-85
2022/03/16 12:22:51;;;;;;;7.00;3.00;;;;;;;;;;5083957;28;20047;-85
2022/03/16 12:25:26;;;;;;;5.65;2.90;;;;;;;;;;5069773;28;20039;-86
2022/03/16 12:30:56;;;;;;;9.50;2.47;;;;;;;;;;5070683;28;20089;-86
2022/03/16 12:33:24;;;;;;;4.72;2.55;;;;;;;;;;5068817;28;20084;-86
2022/03/16 12:35:51;;;;;;;3.72;2.10;;;;;;;;;;5064419;28;20167;-85
2022/03/16 12:38:18;;;;;;;9.35;2.03;;;;;;;;;;5043900;28;20040;-85
2022/03/16 12:43:30;;;;;;;4.47;2.40;;;;;;;;;;5062894;28;20086;-85
2022/03/16 12:46:17;;;;;;;8.30;3.15;;;;;;;;;;5060399;28;20020;-85
2022/03/16 12:48:48;;;;;;;3.92;2.50;;;;;;;;;;5017530;28;20032;-85
2022/03/16 12:51:18;;;;;;;2.45;1.80;;;;;;;;;;5061670;28;20021;-87
2022/03/16 12:53:46;;;;;;;4.93;2.20;;;;;;;;;;5076426;28;20052;-86
2022/03/16 12:56:15;;;;;;;3.33;2.47;;;;;;;;;;5074945;28;20102;-86
2022/03/16 12:58:41;;;;;;;2.72;1.98;;;;;;;;;;5059568;28;20486;-85
2022/03/16 13:01:16;;;;;;;5.97;2.30;;;;;;;;;;5077872;28;20496;-86
2022/03/16 13:03:42;;;;;;;3.85;2.30;;;;;;;;;;5060429;28;20024;-85
2022/03/16 13:06:18;;;;;;;5.88;2.15;;;;;;;;;;5059788;28;20032;-85
2022/03/16 13:08:49;;;;;;;5.40;2.90;;;;;;;;;;5076429;28;20024;-85
2022/03/16 13:11:24;;;;;;;3.03;2.08;;;;;;;;;;5058658;28;20028;-85
2022/03/16 13:14:06;;;;;;;6.53;2.38;;;;;;;;;;5058137;28;20024;-85
2022/03/16 13:16:39;;;;;;;6.03;3.00;;;;;;;;;;5057829;28;20074;-86
2022/03/16 13:19:06;;;;;;;2.42;2.22;;;;;;;;;;5076606;28;20043;-84
2022/03/16 13:21:35;;;;;;;2.45;1.83;;;;;;;;;;5042212;28;20166;-86
2022/03/16 13:24:01;;;;;;;5.57;2.03;;;;;;;;;;5040743;28;20399;-86
2022/03/16 13:26:28;;;;;;;4.32;1.95;;;;;;;;;;5074304;28;20025;-84
2022/03/16 13:28:55;;;;;;;5.55;2.28;;;;;;;;;;5074208;28;20040;-85
2022/03/16 13:31:25;;;;;;;3.67;2.30;;;;;;;;;;5073678;28;20025;-85
2022/03/16 13:33:50;;;;;;;3.92;2.58;;;;;;;;;;5055415;28;20036;-85
2022/03/16 13:36:16;;;;;;;4.25;2.30;;;;;;;;;;5056233;28;20025;-85
2022/03/16 13:38:41;;;;;;;3.60;1.98;;;;;;;;;;5073644;28;20031;-85
2022/03/16 13:41:14;;;;;;;4.50;2.10;;;;;;;;;;5073040;28;20049;-85
2022/03/16 13:43:39;;;;;;;2.85;2.20;;;;;;;;;;5055899;28;20058;-85
2022/03/16 13:46:11;;;;;;;4.18;2.72;;;;;;;;;;5055327;28;20028;-85
2022/03/16 13:48:38;;;;;;;3.03;2.00;;;;;;;;;;5051819;28;20095;-85
2022/03/16 13:51:06;;;;;;;3.17;1.90;;;;;;;;;;5052193;28;20108;-85
2022/03/16 13:53:47;;;;;;;3.25;2.60;;;;;;;;;;5051947;28;20391;-85
2022/03/16 13:56:21;;;;;;;3.20;2.28;;;;;;;;;;5053661;28;20040;-85
2022/03/16 13:58:48;;;;;;;2.80;1.90;;;;;;;;;;5052430;28;20056;-84
2022/03/16 14:01:21;;;;;;;2.28;1.88;;;;;;;;;;5051924;28;20036;-85
2022/03/16 14:03:48;;;;;;;3.53;2.10;;;;;;;;;;5051978;28;20028;-84
2022/03/16 14:06:15;;;;;;;7.28;2.10;;;;;;;;;;5052768;28;20059;-85
2022/03/16 14:08:41;;;;;;;13.10;3.15;;;;;;;;;;5052111;28;20526;-85
2022/03/16 14:11:06;;;;;;;2.70;2.08;;;;;;;;;;5052899;28;20032;-85
2022/03/16 14:13:40;;;;;;;4.32;2.47;;;;;;;;;;5069995;28;20033;-84
2022/03/16 14:16:15;;;;;;;2.25;2.00;;;;;;;;;;5053285;28;20048;-85
2022/03/16 14:18:43;;;;;;;4.63;2.13;;;;;;;;;;5054101;28;20049;-85
2022/03/16 14:21:09;;;;;;;5.57;2.28;;;;;;;;;;5054099;28;20037;-85
2022/03/16 14:23:35;;;;;;;4.82;3.03;;;;;;;;;;5055582;28;20082;-85
2022/03/16 14:26:01;;;;;;;5.78;2.33;;;;;;;;;;5035448;28;20025;-85
2022/03/16 14:28:27;;;;;;;5.53;2.20;;;;;;;;;;5053487;28;20025;-85
2022/03/16 14:30:54;;;;;;;3.53;2.47;;;;;;;;;;5056395;28;20444;-85
2022/03/16 14:33:22;;;;;;;4.63;2.30;;;;;;;;;;5023005;28;20373;-84
2022/03/16 14:35:52;;;;;;;6.28;2.83;;;;;;;;;;5056391;28;20078;-84
2022/03/16 14:38:18;;;;;;;3.45;2.60;;;;;;;;;;5039251;28;20024;-85
2022/03/16 14:40:54;;;;;;;2.95;2.10;;;;;;;;;;5039106;28;20040;-85
2022/03/16 14:43:26;;;;;;;6.68;2.03;;;;;;;;;;5066059;28;20036;-82
2022/03/16 14:45:56;;;;;;;11.40;2.60;;;;;;;;;;5065582;28;20060;-81
2022/03/16 14:48:23;;;;;;;2.72;2.50;;;;;;;;;;5060981;28;20052;-82
2022/03/16 14:50:50;;;;;;;2.55;2.22;;;;;;;;;;5057320;28;20029;-81
2022/03/16 14:53:16;;;;;;;3.28;2.00;;;;;;;;;;5057011;28;20029;-81
2022/03/16 14:55:42;;;;;;;5.63;2.10;;;;;;;;;;5055385;28;20036;-82
2022/03/16 14:58:08;;;;;;;2.70;2.20;;;;;;;;;;5053826;28;20049;-81
2022/03/16 15:00:39;;;;;;;4.22;2.13;;;;;;;;;;5070523;28;20059;-83
2022/03/16 15:03:05;;;;;;;5.20;2.15;;;;;;;;;;5053958;28;20032;-82
2022/03/16 15:05:30;;;;;;;6.43;2.40;;;;;;;;;;5054002;28;20024;-83
2022/03/16 15:07:56;;;;;;;4.05;2.13;;;;;;;;;;5070476;28;20025;-83